createdAt,value
2017-07-23T00:01:18.668Z,19.88
2017-07-23T00:06:15.072Z,19.70
2017-07-23T00:11:10.937Z,19.71
2017-07-23T00:16:07.861Z,19.62
2017-07-23T00:21:04.095Z,19.70
2017-07-23T00:26:00.203Z,19.66
2017-07-23T00:30:57.608Z,19.52
2017-07-23T00:35:53.204Z,19.39
2017-07-23T00:40:49.333Z,19.47
2017-07-23T00:45:46.355Z,19.47
2017-07-23T00:50:41.956Z,19.31
2017-07-23T00:55:39.472Z,19.37
2017-07-23T01:00:35.084Z,19.45
2017-07-23T01:05:32.029Z,19.19
2017-07-23T01:10:28.555Z,19.36
2017-07-23T01:15:25.346Z,19.27
2017-07-23T01:20:20.884Z,19.08
2017-07-23T01:25:17.795Z,19.18
2017-07-23T01:30:13.366Z,19.07
2017-07-23T01:35:09.369Z,18.77
2017-07-23T01:40:05.177Z,18.74
2017-07-23T01:45:01.177Z,18.74
2017-07-23T01:49:57.322Z,18.83
2017-07-23T01:54:53.170Z,18.86
2017-07-23T01:59:49.100Z,18.70
2017-07-23T02:04:44.816Z,18.52
2017-07-23T02:09:40.536Z,18.63
2017-07-23T02:14:36.882Z,18.49
2017-07-23T02:19:32.988Z,18.59
2017-07-23T02:24:29.087Z,18.65
2017-07-23T02:29:26.031Z,18.65
2017-07-23T02:34:22.650Z,18.73
2017-07-23T02:39:18.884Z,18.83
2017-07-23T02:44:14.494Z,18.70
2017-07-23T02:49:11.404Z,18.60
2017-07-23T02:54:07.677Z,18.78
2017-07-23T02:59:03.699Z,18.93
2017-07-23T03:03:59.610Z,18.89
2017-07-23T03:08:56.585Z,18.77
2017-07-23T03:13:53.032Z,18.90
2017-07-23T03:18:49.893Z,18.60
2017-07-23T03:23:45.244Z,18.52
2017-07-23T03:28:41.137Z,18.50
2017-07-23T03:33:38.446Z,18.41
2017-07-23T03:38:33.819Z,18.31
2017-07-23T03:43:31.006Z,18.41
2017-07-23T03:48:28.632Z,18.56
2017-07-23T03:53:24.995Z,18.33
2017-07-23T03:58:20.670Z,18.40
2017-07-23T04:03:16.729Z,18.65
2017-07-23T04:08:13.737Z,18.50
2017-07-23T04:13:09.151Z,18.25
2017-07-23T04:18:04.936Z,18.37
2017-07-23T04:23:01.758Z,18.07
2017-07-23T04:27:58.884Z,18.08
2017-07-23T04:32:55.481Z,18.15
2017-07-23T04:37:51.254Z,18.08
2017-07-23T04:42:47.281Z,18.13
2017-07-23T04:47:43.807Z,18.15
2017-07-23T04:52:39.221Z,18.05
2017-07-23T04:57:36.200Z,18.03
2017-07-23T05:02:31.969Z,18.04
2017-07-23T05:07:27.899Z,18.07
2017-07-23T05:12:28.058Z,18.11
2017-07-23T05:17:24.193Z,18.11
2017-07-23T05:22:20.946Z,17.85
2017-07-23T05:27:17.910Z,17.86
2017-07-23T05:32:14.017Z,17.89
2017-07-23T05:37:10.962Z,17.95
2017-07-23T05:42:06.755Z,18.18
2017-07-23T05:47:03.006Z,18.78
2017-07-23T05:51:59.406Z,19.21
2017-07-23T05:56:57.109Z,19.88
2017-07-23T06:01:53.921Z,19.15
2017-07-23T06:06:49.694Z,19.02
2017-07-23T06:11:45.905Z,18.96
2017-07-23T06:16:41.593Z,18.92
2017-07-23T06:21:37.533Z,18.70
2017-07-23T06:26:34.935Z,18.68
2017-07-23T06:31:31.673Z,18.70
2017-07-23T06:36:28.432Z,18.73
2017-07-23T06:41:24.251Z,18.58
2017-07-23T06:46:21.592Z,18.60
2017-07-23T06:51:22.402Z,18.26
2017-07-23T06:56:18.853Z,18.20
2017-07-23T07:01:14.925Z,18.18
2017-07-23T07:06:11.765Z,18.10
2017-07-23T07:11:09.378Z,18.31
2017-07-23T07:16:10.761Z,18.43
2017-07-23T07:21:05.920Z,18.44
2017-07-23T07:26:02.961Z,18.41
2017-07-23T07:30:59.566Z,18.59
2017-07-23T07:35:57.023Z,19.09
2017-07-23T07:40:56.942Z,19.36
2017-07-23T07:45:54.789Z,19.34
2017-07-23T07:50:50.889Z,19.37
2017-07-23T07:55:48.558Z,19.99
2017-07-23T08:00:44.748Z,19.76
2017-07-23T08:05:40.888Z,19.34
2017-07-23T08:10:36.767Z,19.37
2017-07-23T08:15:35.992Z,19.63
2017-07-23T08:20:36.168Z,19.94
2017-07-23T08:25:33.183Z,20.10
2017-07-23T08:30:28.696Z,20.40
2017-07-23T08:35:27.192Z,20.84
2017-07-23T08:40:30.139Z,21.54
2017-07-23T08:45:30.281Z,21.79
2017-07-23T08:50:29.029Z,21.82
2017-07-23T08:55:25.941Z,21.83
2017-07-23T09:00:23.164Z,22.17
2017-07-23T09:05:18.522Z,21.02
2017-07-23T09:10:13.132Z,20.81
2017-07-23T09:15:09.844Z,20.87
2017-07-23T09:20:05.618Z,20.62
2017-07-23T09:25:02.110Z,20.03
2017-07-23T09:29:59.678Z,20.37
2017-07-23T09:39:56.901Z,19.79
2017-07-23T09:44:51.892Z,19.59
2017-07-23T09:49:47.444Z,19.52
2017-07-23T09:54:43.527Z,19.48
2017-07-23T09:59:39.149Z,19.36
2017-07-23T10:04:35.707Z,19.24
2017-07-23T10:09:32.115Z,19.48
2017-07-23T10:19:35.192Z,20.48
2017-07-23T10:24:30.699Z,20.40
2017-07-23T10:29:26.160Z,20.28
2017-07-23T10:34:22.732Z,20.02
2017-07-23T10:39:18.223Z,19.76
2017-07-23T10:44:13.910Z,19.45
2017-07-23T10:49:11.154Z,19.27
2017-07-23T10:54:06.917Z,19.18
2017-07-23T10:59:02.391Z,19.11
2017-07-23T11:03:59.647Z,19.04
2017-07-23T11:08:58.845Z,19.89
2017-07-23T11:13:58.937Z,20.84
2017-07-23T11:18:54.195Z,20.72
2017-07-23T11:23:49.176Z,20.11
2017-07-23T11:33:47.165Z,20.00
2017-07-23T11:38:45.573Z,20.52
2017-07-23T11:43:44.661Z,21.00
2017-07-23T11:48:44.175Z,21.87
2017-07-23T11:53:40.416Z,21.76
2017-07-23T11:58:37.599Z,21.64
2017-07-23T12:08:36.985Z,20.69
2017-07-23T12:13:38.098Z,21.17
2017-07-23T12:18:34.818Z,21.66
2017-07-23T12:23:34.794Z,21.96
2017-07-23T12:28:33.150Z,22.59
2017-07-23T12:33:29.819Z,22.84
2017-07-23T12:38:26.580Z,22.65
2017-07-23T12:43:23.349Z,22.60
2017-07-23T12:48:16.753Z,22.76
2017-07-23T12:53:14.256Z,22.66
2017-07-23T12:58:10.023Z,22.62
2017-07-23T13:03:05.744Z,22.88
2017-07-23T13:08:02.047Z,22.57
2017-07-23T13:12:56.835Z,22.47
2017-07-23T13:17:53.242Z,21.69
2017-07-23T13:22:49.303Z,21.61
2017-07-23T13:27:47.234Z,21.62
2017-07-23T13:32:46.386Z,22.04
2017-07-23T13:37:42.453Z,22.55
2017-07-23T13:42:38.122Z,22.45
2017-07-23T13:47:34.682Z,21.82
2017-07-23T13:52:31.941Z,22.00
2017-07-23T13:57:27.372Z,21.76
2017-07-23T14:02:26.620Z,21.64
2017-07-23T14:07:23.987Z,21.64
2017-07-23T14:12:20.558Z,21.62
2017-07-23T14:17:16.354Z,21.70
2017-07-23T14:22:11.703Z,21.69
2017-07-23T14:27:08.336Z,21.48
2017-07-23T14:32:03.761Z,21.25
2017-07-23T14:37:01.392Z,21.54
2017-07-23T14:41:57.455Z,21.67
2017-07-23T14:46:53.173Z,21.79
2017-07-23T14:51:50.051Z,21.70
2017-07-23T14:56:45.726Z,21.48
2017-07-23T15:01:43.352Z,21.42
2017-07-23T15:06:40.115Z,21.48
2017-07-23T15:11:36.009Z,21.82
2017-07-23T15:16:32.975Z,21.58
2017-07-23T15:21:28.862Z,21.32
2017-07-23T15:26:25.640Z,21.27
2017-07-23T15:31:22.605Z,21.40
2017-07-23T15:36:22.278Z,21.12
2017-07-23T15:41:23.418Z,21.11
2017-07-23T15:46:18.001Z,21.03
2017-07-23T15:51:14.202Z,21.12
2017-07-23T15:56:10.610Z,21.12
2017-07-23T16:01:06.583Z,21.14
2017-07-23T16:06:02.494Z,21.22
2017-07-23T16:11:00.716Z,21.22
2017-07-23T16:15:55.890Z,20.93
2017-07-23T16:20:55.528Z,20.78
2017-07-23T16:25:50.671Z,20.60
2017-07-23T16:30:46.736Z,20.95
2017-07-23T16:35:43.952Z,20.96
2017-07-23T16:40:39.598Z,20.97
2017-07-23T16:45:40.100Z,21.05
2017-07-23T16:50:35.209Z,21.02
2017-07-23T16:55:31.141Z,20.96
2017-07-23T17:00:28.488Z,21.03
2017-07-23T17:05:25.994Z,20.93
2017-07-23T17:10:23.082Z,20.82
2017-07-23T17:15:19.557Z,20.84
2017-07-23T17:20:15.520Z,20.84
2017-07-23T17:25:12.570Z,20.74
2017-07-23T17:30:09.083Z,20.66
2017-07-23T17:35:04.328Z,20.34
2017-07-23T17:39:59.990Z,19.99
2017-07-23T17:44:55.666Z,19.71
2017-07-23T17:49:51.564Z,19.47
2017-07-23T17:54:47.585Z,18.98
2017-07-23T17:59:43.728Z,18.63
2017-07-23T18:04:39.141Z,18.37
2017-07-23T18:09:35.823Z,18.31
2017-07-23T18:14:31.025Z,18.20
2017-07-23T18:19:29.146Z,18.20
2017-07-23T18:24:24.487Z,17.86
2017-07-23T18:29:20.293Z,17.79
2017-07-23T18:34:16.233Z,17.92
2017-07-23T18:39:12.238Z,17.95
2017-07-23T18:44:08.371Z,17.86
2017-07-23T18:49:05.285Z,17.86
2017-07-23T18:54:00.952Z,17.72
2017-07-23T18:58:57.654Z,17.97
2017-07-23T19:03:54.330Z,17.95
2017-07-23T19:08:49.788Z,18.11
2017-07-23T19:13:46.193Z,17.98
2017-07-23T19:18:41.986Z,17.85
2017-07-23T19:23:37.843Z,17.95
2017-07-23T19:28:33.933Z,18.10
2017-07-23T19:33:29.837Z,18.38
2017-07-23T19:38:27.027Z,18.33
2017-07-23T19:43:23.600Z,18.11
2017-07-23T19:48:21.312Z,18.15
2017-07-23T19:53:18.721Z,18.03
2017-07-23T19:58:16.171Z,18.10
2017-07-23T20:03:13.740Z,18.11
2017-07-23T20:08:15.645Z,17.95
2017-07-23T20:18:15.779Z,18.04
2017-07-23T20:23:12.836Z,18.01
2017-07-23T20:38:14.198Z,17.44
2017-07-23T20:43:10.311Z,17.26
2017-07-23T20:48:06.907Z,16.99
2017-07-23T20:53:04.197Z,16.93
2017-07-23T20:58:00.608Z,17.02
2017-07-23T21:02:57.345Z,16.99
2017-07-23T21:07:54.038Z,16.91
2017-07-23T21:12:49.914Z,16.86
2017-07-23T21:17:49.085Z,16.76
2017-07-23T21:22:45.360Z,16.81
2017-07-23T21:27:41.728Z,16.75
2017-07-23T21:32:38.686Z,16.81
2017-07-23T21:37:37.589Z,16.84
2017-07-23T21:42:34.406Z,16.84
2017-07-23T21:47:31.629Z,16.76
2017-07-23T21:52:29.310Z,16.69
2017-07-23T21:57:25.935Z,16.64
2017-07-23T22:02:21.870Z,16.68
2017-07-23T22:07:19.112Z,16.78
2017-07-23T22:12:16.947Z,16.94
2017-07-23T22:17:14.596Z,16.89
2017-07-23T22:22:12.423Z,16.90
2017-07-23T22:27:09.718Z,16.90
2017-07-23T22:37:11.370Z,16.78
2017-07-23T22:42:08.183Z,17.09
2017-07-23T22:57:07.359Z,17.15
2017-07-23T23:02:09.818Z,17.20
2017-07-23T23:07:09.578Z,17.22
2017-07-23T23:12:07.304Z,17.09
2017-07-23T23:17:03.650Z,17.23
2017-07-23T23:27:03.714Z,17.27
2017-07-23T23:32:01.706Z,17.38
2017-07-23T23:36:57.386Z,17.06
2017-07-23T23:47:00.038Z,16.65
2017-07-23T23:51:56.386Z,16.78
2017-07-23T23:56:52.945Z,16.78
